Time;durP1;ratioP1;P1;durP2;ratioP2;P2;SDS_P1;SDS_P2;PMS_P1;PMS_P2;Temp;Humidity;BMP_temperature;BMP_pressure;BME280_temperature;BME280_humidity;BME280_pressure;Samples;Min_cycle;Max_cycle;Signal;HPM_P1;HPM_P2
2022/05/22 07:24:44;;;;;;;7.55;3.30;;;20.10;99.90;;;22.25;58.02;166413.56;599517;23;20307;-81
2022/05/22 07:27:17;;;;;;;11.00;3.72;;;20.30;99.90;;;22.46;56.90;166470.09;4959838;28;20042;-88
2022/05/22 07:29:50;;;;;;;10.50;3.58;;;20.50;99.90;;;22.69;55.16;166530.69;4994588;28;20045;-85
2022/05/22 07:32:23;;;;;;;10.60;3.47;;;20.70;99.90;;;22.86;55.27;166575.09;4962186;28;20038;-86
2022/05/22 07:35:31;;;;;;;12.25;4.25;;;20.80;99.90;;;22.06;54.66;166362.44;4993344;28;20507;-83
2022/05/22 07:39:37;;;;;;;10.98;4.22;;;20.60;99.90;;;22.69;53.99;166529.34;4992809;28;20173;-84
2022/05/22 07:42:04;;;;;;;7.72;3.75;;;20.60;99.90;;;22.82;51.58;166564.31;4922649;28;20032;-85
2022/05/22 07:44:30;;;;;;;9.02;4.22;;;20.90;95.90;;;22.91;52.19;166589.88;4993377;28;20027;-86
2022/05/22 07:47:07;;;;;;;12.18;4.65;;;20.90;97.10;;;22.88;53.82;166580.47;4976789;28;20110;-85
2022/05/22 07:52:21;;;;;;;8.82;3.33;;;21.10;98.70;;;23.04;52.53;166623.53;4977740;28;20037;-84
2022/05/22 07:54:47;;;;;;;9.32;3.70;;;21.20;97.10;;;23.42;49.83;166725.88;4992183;28;20444;-86
2022/05/22 07:57:13;;;;;;;10.68;3.55;;;21.40;92.10;;;23.64;50.29;166783.72;4992269;28;20050;-84
2022/05/22 07:59:42;;;;;;;7.68;3.00;;;21.70;94.10;;;24.02;49.36;166886.06;4992378;28;20027;-85
2022/05/22 08:02:12;;;;;;;7.03;3.08;;;21.80;91.40;;;23.99;49.01;166877.97;4991835;28;20049;-85
2022/05/22 08:04:43;;;;;;;11.35;3.60;;;21.70;91.20;;;23.33;50.29;166700.25;4976989;28;20052;-85
2022/05/22 08:07:11;;;;;;;8.32;3.60;;;21.60;91.50;;;23.35;50.21;166705.59;4993590;28;20487;-84
2022/05/22 08:09:51;;;;;;;8.63;3.35;;;21.50;91.60;;;23.40;50.69;166719.13;4993306;28;20053;-87
2022/05/22 08:12:21;;;;;;;10.63;3.63;;;21.60;92.30;;;23.79;49.09;166824.09;4959258;29;20030;-86
2022/05/22 08:14:49;;;;;;;5.95;2.70;;;21.90;90.00;;;24.45;48.29;167000.56;4958982;28;20042;-85
2022/05/22 08:17:15;;;;;;;8.32;3.20;;;22.30;88.70;;;24.52;47.32;167018.09;4959248;28;20042;-87
2022/05/22 08:19:42;;;;;;;6.85;3.33;;;22.40;85.80;;;24.59;46.50;167036.94;4958448;28;20035;-83
2022/05/22 08:22:10;;;;;;;8.40;3.30;;;22.60;82.00;;;24.16;47.43;166922.47;4959579;28;20027;-84
2022/05/22 08:24:36;;;;;;;5.68;2.30;;;22.30;83.40;;;24.38;47.50;166980.34;4959359;28;20027;-85
2022/05/22 08:27:04;;;;;;;8.57;3.08;;;22.40;84.60;;;24.49;45.60;167010.00;4958445;28;20459;-84
2022/05/22 08:29:32;;;;;;;10.32;3.00;;;22.40;79.20;;;24.25;47.41;166945.34;4960073;29;20047;-85
2022/05/22 08:32:00;;;;;;;7.47;3.10;;;22.40;82.40;;;24.60;45.91;167040.97;4958341;28;20027;-87
2022/05/22 08:34:26;;;;;;;7.88;2.83;;;22.50;79.80;;;25.18;43.92;167195.94;4958228;28;20055;-88
2022/05/22 08:36:54;;;;;;;8.57;2.75;;;22.90;76.90;;;25.46;42.87;167270.03;4958100;28;20036;-87
2022/05/22 08:39:20;;;;;;;8.35;2.25;;;23.10;74.70;;;25.46;43.78;167268.72;4957549;28;20031;-85
2022/05/22 08:41:54;;;;;;;6.82;2.95;;;23.30;75.10;;;25.62;41.50;167313.19;4957170;28;20034;-88
2022/05/22 08:44:31;;;;;;;6.43;2.10;;;23.40;70.10;;;25.94;42.61;167396.78;4957163;28;20542;-88
2022/05/22 08:47:16;;;;;;;9.68;2.83;;;23.70;73.20;;;26.08;42.23;167435.84;4957919;28;20035;-85
2022/05/22 08:50:11;;;;;;;10.27;2.60;;;23.70;72.90;;;26.08;41.74;167434.50;4957251;28;20065;-89
2022/05/22 08:52:57;;;;;;;7.97;2.53;;;23.70;71.50;;;25.90;42.34;167386.00;4957713;28;20045;-88
2022/05/22 08:59:09;;;;;;;;;;;23.40;71.10;;;25.39;41.77;167249.84;4958177;28;20058;-87
2022/05/22 09:02:06;;;;;;;8.15;2.55;;;23.30;69.90;;;25.77;40.41;167352.31;4957027;28;20326;-88
2022/05/22 09:04:45;;;;;;;5.32;2.38;;;23.40;68.30;;;26.20;41.16;167468.25;4957462;28;20035;-89
2022/05/22 09:07:59;;;;;;;9.50;3.38;;;23.80;69.40;;;25.72;41.40;167337.50;4957370;28;20528;-85
2022/05/22 09:10:53;;;;;;;9.40;3.03;;;23.60;69.30;;;26.17;40.27;167458.81;4954674;29;20039;-86
2022/05/22 09:13:51;;;;;;;8.85;2.78;;;23.90;68.20;;;26.24;40.30;167477.69;4961128;28;20035;-83
2022/05/22 09:16:49;;;;;;;9.40;3.55;;;23.90;67.80;;;25.98;40.11;167407.53;5016310;23;20077;-82
2022/05/22 09:19:32;;;;;;;8.80;3.20;;;23.60;66.30;;;25.83;40.52;167367.13;4997181;28;20037;-85
2022/05/22 09:22:30;;;;;;;13.07;4.30;;;23.60;67.80;;;25.88;40.63;167380.63;4998679;28;20026;-84
2022/05/22 09:25:46;;;;;;;11.18;3.83;;;23.60;68.70;;;25.73;40.96;167341.50;4995217;28;20027;-86
2022/05/22 09:28:42;;;;;;;11.65;4.53;;;23.50;68.00;;;25.56;41.33;167297.03;4977734;28;20031;-84
2022/05/22 09:32:18;;;;;;;11.52;4.88;;;23.60;67.60;;;25.58;41.55;167301.09;4977870;28;20063;-85
2022/05/22 09:35:02;;;;;;;11.68;4.70;;;23.50;67.70;;;26.23;39.90;167475.03;4964928;28;20054;-84
2022/05/22 09:37:52;;;;;;;10.25;4.20;;;23.90;66.90;;;26.12;41.12;167445.28;4977912;28;20314;-86
2022/05/22 09:40:45;;;;;;;9.52;4.28;;;24.00;68.20;;;26.52;38.69;167553.16;4978538;28;20039;-85
2022/05/22 09:43:41;;;;;;;8.65;3.45;;;24.20;64.80;;;26.54;41.53;167558.59;4994296;28;20035;-86
2022/05/22 09:47:18;;;;;;;8.15;3.40;;;24.30;67.70;;;26.62;39.90;167578.78;4978573;28;20027;-84
2022/05/22 09:50:27;;;;;;;9.65;4.60;;;24.30;66.80;;;25.85;38.66;167373.84;4970642;28;20062;-85
2022/05/22 09:53:07;;;;;;;9.82;3.95;;;24.20;66.50;;;26.25;39.62;167480.41;4977515;28;20408;-83
2022/05/22 09:55:51;;;;;;;8.70;3.15;;;24.20;64.30;;;26.92;39.31;167658.41;4978513;28;20058;-86
2022/05/22 09:59:04;;;;;;;6.55;2.70;;;24.60;66.30;;;27.50;40.39;167813.56;4979237;28;20042;-85
2022/05/22 10:01:42;;;;;;;8.80;3.60;;;25.00;67.10;;;27.66;37.45;167856.72;4962567;28;20058;-87
2022/05/22 10:05:01;;;;;;;6.57;3.15;;;25.20;62.30;;;27.62;37.73;167847.28;4994628;28;20039;-87
2022/05/22 10:08:14;;;;;;;8.30;4.05;;;25.20;62.10;;;25.39;39.74;167251.19;4994916;28;20054;-86
2022/05/22 10:11:05;;;;;;;9.15;4.03;;;23.90;63.20;;;25.79;40.43;167357.69;4959926;28;20027;-84
2022/05/22 10:14:28;;;;;;;8.07;2.88;;;23.80;65.20;;;25.82;40.83;167364.41;4982158;28;20072;-84
2022/05/22 10:17:37;;;;;;;9.65;4.03;;;23.80;67.60;;;24.83;41.92;167101.63;4982322;28;20101;-86
2022/05/22 10:20:26;;;;;;;10.35;2.70;;;23.20;67.20;;;24.26;42.99;166949.41;4997514;28;20038;-85
2022/05/22 10:23:50;;;;;;;11.20;3.72;;;22.60;68.70;;;24.54;41.92;167023.47;4984661;28;20031;-83
2022/05/22 10:26:43;;;;;;;13.93;4.20;;;22.70;69.30;;;25.49;40.92;167278.22;4997354;28;20030;-84
2022/05/22 10:29:41;;;;;;;8.00;3.30;;;23.20;68.20;;;25.62;40.48;167311.88;4996456;28;20051;-84
2022/05/22 10:32:40;;;;;;;7.80;2.85;;;23.50;66.10;;;25.26;41.75;167214.81;4981962;28;20042;-85
2022/05/22 10:35:27;;;;;;;7.43;2.80;;;23.30;67.70;;;24.95;42.36;167133.94;4981359;28;20026;-84
2022/05/22 10:38:22;;;;;;;8.80;3.67;;;23.00;68.20;;;23.93;43.23;166861.81;4981800;28;20031;-86
2022/05/22 10:43:52;;;;;;;9.57;4.05;;;22.50;69.30;;;25.05;42.77;167159.53;4981287;28;20454;-85
2022/05/22 10:46:18;;;;;;;9.52;3.60;;;23.10;70.30;;;26.10;41.80;167439.91;4996175;28;20034;-84
2022/05/22 10:48:55;;;;;;;12.02;3.83;;;23.90;69.10;;;26.29;39.77;167491.19;4982257;28;20043;-83
2022/05/22 10:51:29;;;;;;;9.73;3.80;;;24.00;65.80;;;25.63;39.92;167314.53;4996103;28;20033;-85
2022/05/22 10:54:01;;;;;;;8.02;4.00;;;23.60;64.80;;;25.09;40.79;167170.34;4981343;28;20079;-85
2022/05/22 10:56:35;;;;;;;9.88;3.75;;;23.10;66.50;;;25.41;41.42;167255.22;4980048;28;20031;-85
2022/05/22 10:59:17;;;;;;;12.73;5.30;;;23.40;68.70;;;25.66;39.80;167324.00;4981223;28;20039;-84
2022/05/22 11:01:43;;;;;;;12.13;4.03;;;23.80;64.50;;;26.53;40.07;167555.88;4980005;28;20030;-87
2022/05/22 11:04:14;;;;;;;10.45;4.18;;;24.50;65.50;;;27.27;36.78;167752.78;4980391;28;20184;-84
2022/05/22 11:06:55;;;;;;;11.45;3.80;;;24.90;61.90;;;27.41;37.14;167789.22;4980214;28;20322;-86
2022/05/22 11:09:51;;;;;;;6.78;3.67;;;25.30;61.30;;;27.43;36.08;167794.59;4998095;28;20096;-86
2022/05/22 11:12:27;;;;;;;11.07;3.67;;;25.40;59.60;;;27.94;37.16;167932.25;4967235;28;20541;-82
2022/05/22 11:15:32;;;;;;;9.10;3.70;;;25.70;60.80;;;28.45;36.90;168068.56;4960636;28;20447;-86
2022/05/22 11:18:23;;;;;;;11.95;3.97;;;26.20;60.60;;;28.68;35.99;168129.34;4960063;28;20031;-83
2022/05/22 11:20:58;;;;;;;15.02;4.47;;;26.60;59.20;;;28.91;34.08;168190.09;4961313;28;20140;-84
2022/05/22 11:23:54;;;;;;;10.63;4.17;;;26.80;56.30;;;27.97;36.47;167938.97;4977211;28;20027;-85
2022/05/22 11:26:54;;;;;;;;;;;26.40;57.80;;;27.63;35.17;167849.97;4976481;28;20484;-86
2022/05/22 11:30:09;;;;;;;10.13;4.07;;;25.90;56.60;;;28.09;35.76;167972.81;4962707;28;19957;-87
2022/05/22 11:33:15;;;;;;;13.13;4.28;;;25.90;58.20;;;28.52;34.32;168087.47;4976067;28;20517;-85
2022/05/22 11:36:48;;;;;;;10.10;3.88;;;26.30;59.00;;;29.01;34.69;168217.09;4960647;28;20079;-87
2022/05/22 11:39:24;;;;;;;10.63;4.22;;;26.70;57.60;;;28.70;35.05;168136.16;4975226;28;20035;-87
2022/05/22 11:42:39;;;;;;;8.10;3.50;;;26.70;57.00;;;29.09;35.41;168240.03;4975684;28;20387;-85
2022/05/22 11:45:48;;;;;;;10.77;3.78;;;26.80;57.60;;;29.10;34.29;168241.38;4958744;28;20035;-85
2022/05/22 11:48:44;;;;;;;10.57;3.97;;;27.10;56.20;;;29.39;34.29;168318.38;4961130;28;20391;-85
2022/05/22 11:51:48;;;;;;;11.35;4.45;;;27.10;56.10;;;28.37;34.09;168047.00;4975660;28;20031;-85
2022/05/22 11:54:56;;;;;;;9.70;3.97;;;26.50;55.80;;;27.29;35.12;167756.88;4975650;28;20031;-86
2022/05/22 11:58:18;;;;;;;11.05;4.13;;;25.50;56.00;;;25.97;38.33;167406.22;4961136;28;20034;-82
2022/05/22 12:01:18;;;;;;;8.43;3.50;;;24.40;59.60;;;25.12;40.91;167178.41;4960161;28;20213;-85
2022/05/22 12:04:15;;;;;;;7.65;3.40;;;23.60;62.90;;;24.98;40.04;167142.03;4974921;28;20507;-82
2022/05/22 12:07:27;;;;;;;11.73;4.78;;;23.30;61.90;;;24.62;41.12;167046.38;4974524;28;20042;-82
2022/05/22 12:10:28;;;;;;;11.45;4.22;;;23.00;63.70;;;24.53;41.62;167022.09;4941187;29;20054;-84
2022/05/22 12:13:20;;;;;;;8.50;3.90;;;22.80;64.40;;;24.35;42.29;166973.63;4978257;28;20065;-83
2022/05/22 12:16:10;;;;;;;11.52;4.95;;;22.70;65.50;;;23.77;42.35;166818.72;4977463;28;20088;-86
2022/05/22 12:18:52;;;;;;;11.30;4.97;;;22.30;65.20;;;24.14;42.34;166917.09;4975738;28;20040;-83
2022/05/22 12:22:06;;;;;;;10.18;4.60;;;22.50;65.70;;;25.30;39.23;167226.91;4992058;28;20030;-87
2022/05/22 12:25:00;;;;;;;9.48;4.03;;;23.30;62.30;;;26.16;38.34;167457.50;4977638;28;20038;-85
2022/05/22 12:27:36;;;;;;;10.60;4.88;;;23.90;61.80;;;26.65;38.23;167586.91;4976195;28;20034;-84
2022/05/22 12:30:28;;;;;;;10.10;4.82;;;24.60;61.70;;;26.59;38.25;167572.06;4977066;28;20112;-87
2022/05/22 12:33:07;;;;;;;10.85;4.60;;;24.60;61.00;;;26.09;39.10;167437.22;4976574;28;20058;-86
2022/05/22 12:35:33;;;;;;;10.18;4.25;;;24.20;61.50;;;25.20;41.71;167200.00;4977301;28;20030;-86
2022/05/22 12:38:05;;;;;;;10.90;4.97;;;23.70;64.80;;;24.95;41.04;167132.59;4976905;28;20054;-85
2022/05/22 12:41:21;;;;;;;8.13;4.55;;;23.40;63.60;;;24.82;41.55;167097.63;4976152;28;20022;-83
2022/05/22 12:43:55;;;;;;;11.02;5.40;;;23.20;64.50;;;24.61;41.28;167043.69;4978200;28;20125;-86
2022/05/22 12:46:24;;;;;;;6.97;4.13;;;22.90;64.30;;;24.68;41.82;167061.19;4979638;28;20027;-85
2022/05/22 12:49:06;;;;;;;11.10;4.18;;;23.00;66.00;;;25.55;39.39;167294.38;4978145;28;20050;-84
2022/05/22 12:51:39;;;;;;;10.63;4.30;;;23.70;64.50;;;26.21;38.50;167469.59;4977909;28;20387;-84
2022/05/22 12:54:25;;;;;;;10.98;4.18;;;24.20;61.30;;;26.95;36.85;167666.50;4978042;28;20193;-84
2022/05/22 12:56:52;;;;;;;;;;;24.90;59.70;;;26.60;38.04;167574.75;4983540;28;20031;-82
2022/05/22 12:59:22;;;;;;;8.18;3.47;;;24.60;60.90;;;25.84;38.65;167371.19;4992108;28;19910;-84
2022/05/22 13:02:01;;;;;;;8.90;3.45;;;24.10;60.70;;;25.28;41.18;167221.53;4991361;28;20090;-86
2022/05/22 13:04:55;;;;;;;11.35;4.22;;;23.70;63.90;;;24.51;41.76;167016.72;4975385;28;20122;-83
2022/05/22 13:07:36;;;;;;;5.55;3.20;;;23.10;64.00;;;25.48;40.30;167274.09;4976739;28;20418;-85
2022/05/22 13:10:43;;;;;;;6.43;2.80;;;23.70;63.10;;;26.57;38.70;167565.31;4973333;28;20030;-85
2022/05/22 13:13:14;;;;;;;9.65;3.80;;;24.50;62.10;;;26.97;37.27;167671.91;4956940;28;20039;-84
2022/05/22 13:16:10;;;;;;;10.45;4.65;;;24.90;59.70;;;27.16;36.83;167724.47;4957660;28;20035;-86
2022/05/22 13:18:49;;;;;;;8.77;4.15;;;25.40;58.80;;;26.84;37.69;167638.22;4972800;28;20042;-84
2022/05/22 13:21:39;;;;;;;10.50;3.83;;;25.00;59.50;;;25.78;38.88;167353.66;4958746;28;20034;-85
2022/05/22 13:24:31;;;;;;;10.77;3.53;;;24.10;60.30;;;24.49;41.64;167011.38;4958447;28;20084;-82
2022/05/22 13:27:33;;;;;;;11.15;3.67;;;23.20;63.80;;;24.48;41.27;167007.31;4961846;28;20047;-82
2022/05/22 13:30:15;;;;;;;8.60;3.17;;;22.90;64.00;;;23.99;43.03;166876.63;4963246;28;20086;-84
2022/05/22 13:32:55;;;;;;;10.27;4.68;;;22.60;66.10;;;23.45;43.32;166732.59;4955590;28;20039;-85
2022/05/22 13:35:32;;;;;;;6.72;3.30;;;22.20;66.50;;;23.72;43.19;166803.94;4955277;28;20514;-83
2022/05/22 13:37:58;;;;;;;12.02;3.83;;;22.20;66.60;;;23.98;43.33;166873.97;4972160;28;20039;-83
2022/05/22 13:41:31;;;;;;;8.68;3.22;;;22.40;67.30;;;24.87;42.17;167111.06;4971437;28;20499;-87
2022/05/22 13:44:43;;;;;;;7.85;3.28;;;23.00;66.00;;;26.14;39.23;167450.66;4954709;29;20122;-85
2022/05/22 13:48:31;;;;;;;12.20;4.13;;;23.90;63.10;;;26.04;40.02;167425.06;4960868;28;20027;-87
2022/05/22 13:54:46;;;;;;;7.75;3.78;;;24.90;60.70;;;26.54;38.64;167557.25;4962908;29;20099;-84
2022/05/22 13:57:28;;;;;;;8.02;3.72;;;25.00;60.00;;;26.44;38.98;167530.25;4962236;28;20126;-86
2022/05/22 14:00:04;;;;;;;9.18;3.83;;;25.00;60.30;;;26.24;37.34;167477.69;4962018;28;20030;-84
2022/05/22 14:02:48;;;;;;;11.57;3.67;;;24.90;58.10;;;26.14;40.23;167450.66;4961797;28;20477;-83
2022/05/22 14:05:16;;;;;;;7.45;3.28;;;24.50;61.00;;;25.53;40.00;167288.94;4960756;28;20035;-84
2022/05/22 14:07:51;;;;;;;8.70;3.63;;;24.00;61.50;;;24.76;40.89;167082.72;4960326;28;20047;-83
2022/05/22 14:10:35;;;;;;;9.17;3.47;;;23.30;62.80;;;24.56;41.30;167030.19;4981145;28;20022;-87
2022/05/22 14:13:24;;;;;;;8.70;3.40;;;23.10;63.70;;;24.85;40.63;167107.00;4979044;28;20274;-85
2022/05/22 14:16:01;;;;;;;6.95;3.08;;;23.10;63.20;;;24.79;41.47;167090.78;4980742;28;20510;-85
2022/05/22 14:18:32;;;;;;;6.00;3.20;;;23.00;64.60;;;25.01;40.52;167150.13;4979814;28;20062;-85
2022/05/22 14:21:09;;;;;;;6.68;3.03;;;23.10;63.90;;;25.55;40.50;167293.00;4979972;28;20035;-84
2022/05/22 14:26:32;;;;;;;10.00;3.92;;;23.90;63.50;;;26.43;38.19;167527.56;4980127;28;20514;-84
2022/05/22 14:28:58;;;;;;;7.10;2.92;;;24.30;61.70;;;26.44;38.45;167530.25;4980431;28;20039;-84
2022/05/22 14:31:26;;;;;;;6.55;3.03;;;24.50;61.10;;;26.79;38.19;167623.28;4979683;28;20041;-85
2022/05/22 14:34:01;;;;;;;7.82;3.00;;;24.70;60.90;;;26.69;38.38;167597.66;4994168;28;20342;-87
2022/05/22 14:36:28;;;;;;;11.25;3.55;;;24.80;60.10;;;26.73;37.91;167609.81;4979782;28;20054;-87
2022/05/22 14:38:54;;;;;;;8.43;3.20;;;24.90;59.90;;;26.91;37.61;167655.69;4979797;28;20486;-86
2022/05/22 14:41:28;;;;;;;9.75;3.72;;;24.90;59.50;;;26.91;36.41;167655.69;4980447;28;20054;-84
2022/05/22 14:44:01;;;;;;;10.15;3.42;;;25.00;58.50;;;27.07;36.86;167700.19;4979737;28;20459;-87
2022/05/22 14:46:39;;;;;;;6.95;2.38;;;25.10;58.80;;;26.96;37.23;167669.19;4994594;28;20034;-85
2022/05/22 14:49:36;;;;;;;6.03;3.13;;;25.00;59.10;;;26.77;37.93;167617.91;4995035;28;20050;-84
2022/05/22 14:52:21;;;;;;;9.20;3.33;;;24.90;60.10;;;25.88;39.11;167380.63;4981016;28;20023;-83
2022/05/22 14:54:57;;;;;;;8.55;3.65;;;24.50;59.90;;;25.91;39.73;167388.69;4998136;28;20553;-86
2022/05/22 14:57:53;;;;;;;;;;;24.40;61.80;;;25.24;38.58;167210.75;4979551;28;20023;-85
2022/05/22 15:00:30;;;;;;;6.72;2.63;;;24.00;60.80;;;25.10;40.04;167173.06;4997926;28;20416;-82
2022/05/22 15:03:46;;;;;;;8.70;3.40;;;23.50;62.10;;;25.26;39.09;167214.81;4979973;28;20050;-86
2022/05/22 15:06:30;;;;;;;8.52;2.78;;;23.50;61.30;;;25.35;40.54;167239.06;4981716;28;20058;-87
2022/05/22 15:09:03;;;;;;;8.00;3.10;;;23.60;63.60;;;25.64;40.05;167317.25;4981687;28;20083;-88
2022/05/22 15:11:40;;;;;;;5.47;2.75;;;23.80;63.00;;;25.38;40.30;167247.13;4980936;28;20030;-84
2022/05/22 15:14:29;;;;;;;7.95;2.63;;;23.80;62.60;;;25.50;39.66;167280.88;4982709;28;20105;-85
2022/05/22 15:16:59;;;;;;;7.00;2.67;;;23.80;62.20;;;25.59;40.01;167305.13;4981618;28;20478;-84
2022/05/22 15:19:51;;;;;;;7.82;3.17;;;23.80;62.50;;;25.48;40.61;167274.09;4982131;28;20109;-86
2022/05/22 15:25:29;;;;;;;7.32;2.75;;;23.70;62.50;;;25.32;40.33;167230.97;4983682;28;20041;-84
2022/05/22 15:28:14;;;;;;;7.13;3.38;;;23.60;62.90;;;25.08;40.75;167167.63;4983966;28;20039;-84
2022/05/22 15:31:01;;;;;;;7.73;2.97;;;23.50;63.10;;;25.03;41.82;167154.19;4982012;28;20027;-84
2022/05/22 15:33:51;;;;;;;6.78;3.22;;;23.50;64.40;;;25.01;40.96;167148.81;4982040;28;20101;-85
2022/05/22 15:36:34;;;;;;;8.27;3.35;;;23.40;63.30;;;24.95;40.42;167132.59;4983068;28;20054;-86
2022/05/22 15:39:07;;;;;;;7.35;3.33;;;23.30;62.90;;;24.81;40.91;167094.84;4981182;28;20065;-84
2022/05/22 15:41:45;;;;;;;7.40;3.00;;;23.10;64.00;;;24.89;41.79;167116.44;4981508;28;20027;-86
2022/05/22 15:44:17;;;;;;;6.30;2.72;;;23.10;65.10;;;24.81;41.68;167094.84;4983525;28;20035;-85
2022/05/22 15:46:48;;;;;;;5.30;2.45;;;23.10;65.00;;;24.69;42.47;167062.53;4993483;28;20039;-86
2022/05/22 15:52:09;;;;;;;7.85;3.13;;;23.10;63.80;;;24.40;41.79;166985.78;4980256;28;20429;-84
2022/05/22 15:54:38;;;;;;;7.32;2.97;;;22.90;64.80;;;24.27;42.62;166950.75;4979340;28;20034;-85
2022/05/22 15:57:07;;;;;;;9.73;3.40;;;22.70;66.00;;;24.25;42.85;166946.69;4979980;28;20027;-84
2022/05/22 15:59:37;;;;;;;10.27;3.17;;;22.70;65.90;;;24.22;42.98;166938.63;4978289;28;20352;-84
2022/05/22 16:02:29;;;;;;;7.05;2.80;;;22.60;66.70;;;24.07;42.49;166898.19;4978634;28;20112;-84
2022/05/22 16:04:55;;;;;;;7.65;2.63;;;22.60;65.60;;;23.91;43.74;166856.47;4978496;28;20026;-83
2022/05/22 16:07:22;;;;;;;4.10;2.03;;;22.50;66.90;;;24.10;43.76;166906.25;4978957;28;20041;-85
2022/05/22 16:09:48;;;;;;;8.77;3.10;;;22.50;67.60;;;24.23;43.43;166941.34;4976309;28;20034;-86
2022/05/22 16:12:14;;;;;;;8.70;3.25;;;22.60;67.80;;;23.93;44.79;166861.81;4976056;28;20042;-86
2022/05/22 16:14:43;;;;;;;9.50;3.20;;;22.50;68.20;;;23.87;45.04;166844.31;4960666;28;20050;-85
2022/05/22 16:17:17;;;;;;;6.78;2.65;;;22.50;69.10;;;23.86;44.90;166842.97;4959530;28;20554;-84
2022/05/22 16:19:52;;;;;;;8.02;3.00;;;22.30;68.70;;;23.69;44.73;166795.88;4958655;28;20035;-84
2022/05/22 16:22:18;;;;;;;;;;;22.20;69.20;;;23.45;46.03;166732.59;4958910;28;20027;-85
2022/05/22 16:24:44;;;;;;;7.35;3.08;;;22.00;70.80;;;23.42;46.27;166724.50;4958871;28;19921;-84
2022/05/22 16:27:10;;;;;;;9.90;3.00;;;22.00;71.00;;;23.29;46.34;166690.81;4959358;28;20503;-82
2022/05/22 16:29:36;;;;;;;8.20;3.10;;;21.90;71.20;;;23.22;46.58;166671.97;4960049;28;20043;-84
2022/05/22 16:32:07;;;;;;;7.82;2.95;;;21.80;71.70;;;23.02;47.21;166618.16;4959247;28;20042;-84
2022/05/22 16:34:33;;;;;;;9.20;3.08;;;21.60;72.70;;;22.73;48.46;166541.47;4958825;28;20023;-85
2022/05/22 16:36:59;;;;;;;5.97;2.90;;;21.50;74.30;;;22.66;47.61;166521.25;4974056;28;20042;-83
2022/05/22 16:39:29;;;;;;;9.75;3.40;;;21.40;73.40;;;22.54;48.69;166490.25;4958747;28;20487;-85
2022/05/22 16:41:55;;;;;;;8.98;2.92;;;21.30;75.20;;;22.49;49.23;166476.81;4957238;28;20027;-84
2022/05/22 16:44:22;;;;;;;8.10;3.03;;;21.30;76.50;;;22.45;49.38;166467.38;4973209;28;20031;-84
2022/05/22 16:46:53;;;;;;;6.57;2.83;;;21.20;77.20;;;22.48;50.28;166474.09;4958239;28;20434;-84
2022/05/22 16:54:55;;;;;;;10.57;3.30;;;21.30;80.00;;;22.25;49.97;166413.56;4958419;29;20042;-85
2022/05/22 16:57:31;;;;;;;7.72;3.08;;;21.10;79.50;;;22.15;50.57;166385.34;4958194;28;20034;-85
2022/05/22 16:59:58;;;;;;;12.43;3.50;;;20.90;80.70;;;22.08;51.19;166366.50;4973330;28;20431;-83
2022/05/22 17:02:25;;;;;;;8.32;3.33;;;20.80;82.90;;;21.96;51.78;166335.59;4956918;28;20034;-83
2022/05/22 17:04:51;;;;;;;7.43;3.10;;;20.70;85.10;;;21.93;52.05;166327.53;4959273;28;20075;-86
2022/05/22 17:07:26;;;;;;;7.40;3.53;;;20.60;86.60;;;21.81;52.44;166296.50;4959208;29;20074;-84
2022/05/22 17:10:00;;;;;;;7.70;3.05;;;20.60;89.10;;;21.82;52.62;166297.88;4959666;28;20035;-84
2022/05/22 17:12:27;;;;;;;6.65;3.35;;;20.60;90.80;;;21.82;51.97;166297.88;4992747;28;20406;-83
2022/05/22 17:14:53;;;;;;;7.95;3.13;;;20.60;90.40;;;21.90;51.92;166320.75;4976002;28;20450;-83
2022/05/22 17:17:19;;;;;;;7.45;2.50;;;20.60;91.00;;;22.04;51.93;166358.44;4978322;28;20039;-84
2022/05/22 17:19:47;;;;;;;7.10;2.88;;;20.70;91.50;;;22.26;51.97;166416.28;4976370;28;20034;-82
2022/05/22 17:22:20;;;;;;;10.63;3.40;;;20.90;91.80;;;22.50;50.82;166480.88;4978036;28;20035;-83
2022/05/22 17:24:57;;;;;;;9.50;3.05;;;21.10;90.60;;;22.65;50.49;166519.88;4975871;28;20031;-87
2022/05/22 17:27:45;;;;;;;7.40;2.83;;;21.20;90.20;;;22.76;50.41;166548.19;4976608;28;20125;-84
2022/05/22 17:30:16;;;;;;;8.27;3.05;;;21.30;90.40;;;22.52;50.46;166486.22;4977864;28;20033;-84
2022/05/22 17:32:42;;;;;;;9.80;2.90;;;21.30;89.30;;;22.43;50.95;166460.66;4976708;28;20089;-85
2022/05/22 17:35:10;;;;;;;7.40;3.15;;;21.20;90.30;;;22.22;51.75;166405.50;4977983;28;20034;-84
2022/05/22 17:37:41;;;;;;;6.20;2.58;;;21.00;91.30;;;22.03;52.22;166354.38;4977948;28;20058;-84
2022/05/22 17:40:35;;;;;;;8.35;3.45;;;20.90;92.30;;;21.77;52.62;166285.75;4979427;28;20030;-86
2022/05/22 17:43:07;;;;;;;8.90;3.30;;;20.70;93.10;;;21.65;52.92;166253.47;4979230;28;20047;-84
2022/05/22 17:45:34;;;;;;;10.23;3.33;;;20.50;93.90;;;21.53;53.01;166221.22;4978213;28;20027;-86
2022/05/22 17:48:02;;;;;;;8.57;3.55;;;20.30;94.50;;;21.48;53.30;166209.09;4978063;28;20027;-85
2022/05/22 17:50:38;;;;;;;8.18;3.42;;;20.20;95.70;;;21.38;53.66;166180.91;4993408;28;20038;-85
2022/05/22 17:53:10;;;;;;;11.57;4.30;;;20.20;96.40;;;21.34;54.11;166171.47;4977659;28;20045;-85
2022/05/22 17:55:37;;;;;;;8.27;3.35;;;20.10;97.70;;;21.33;53.84;166168.78;4977507;28;20031;-83
2022/05/22 17:58:04;;;;;;;9.35;3.85;;;20.10;98.20;;;21.28;54.32;166154.00;4979484;28;20027;-84
2022/05/22 18:00:31;;;;;;;6.68;3.38;;;20.00;99.00;;;21.14;54.23;166116.34;4983566;28;20031;-85
2022/05/22 18:02:56;;;;;;;7.93;3.65;;;20.00;99.00;;;21.06;55.00;166094.81;4986182;28;20031;-85
2022/05/22 18:05:22;;;;;;;9.65;2.90;;;19.90;99.90;;;21.09;54.58;166102.88;4976940;28;20034;-84
2022/05/22 18:07:50;;;;;;;8.95;3.63;;;19.80;99.90;;;20.98;54.81;166074.63;4991814;28;20038;-81
2022/05/22 18:16:09;;;;;;;6.13;3.17;;;19.60;99.90;;;20.71;55.81;166003.38;4957600;29;20458;-85
2022/05/22 18:18:42;;;;;;;8.23;3.20;;;19.50;99.90;;;20.71;55.87;166002.06;4958440;28;20035;-84
2022/05/22 18:21:17;;;;;;;7.68;3.60;;;19.50;99.90;;;20.69;56.22;165996.66;4958126;28;20038;-84
2022/05/22 18:23:56;;;;;;;7.90;3.55;;;19.50;99.90;;;20.50;56.77;165946.94;4959771;28;20023;-86
2022/05/22 18:26:29;;;;;;;7.47;3.53;;;19.40;99.90;;;20.47;56.67;165938.88;4960379;28;20027;-86
2022/05/22 18:29:02;;;;;;;8.05;3.20;;;19.30;99.90;;;20.45;57.13;165933.53;4960436;28;20036;-84
2022/05/22 18:31:32;;;;;;;6.30;3.30;;;19.30;99.90;;;20.43;56.93;165929.47;4961962;28;20070;-85
2022/05/22 18:33:57;;;;;;;10.98;3.50;;;19.20;99.90;;;20.29;57.59;165891.84;4963265;28;20038;-86
2022/05/22 18:36:23;;;;;;;10.52;3.58;;;19.20;99.90;;;20.25;57.75;165879.72;4961938;28;20027;-83
2022/05/22 18:38:50;;;;;;;11.43;3.42;;;19.10;99.90;;;20.23;57.63;165874.31;4960809;28;20039;-84
2022/05/22 18:41:25;;;;;;;6.03;3.35;;;19.00;99.90;;;20.17;57.49;165859.53;4961719;28;20031;-83
2022/05/22 18:44:00;;;;;;;8.63;4.18;;;19.00;99.90;;;20.06;57.80;165830.00;4959729;28;20034;-82
2022/05/22 18:46:26;;;;;;;8.40;3.78;;;18.90;99.90;;;20.05;57.76;165825.97;4959841;28;20031;-84
2022/05/22 18:48:52;;;;;;;7.55;3.25;;;18.90;99.90;;;20.09;57.77;165836.72;4975880;28;20082;-84
2022/05/22 18:51:18;;;;;;;11.40;3.55;;;18.90;99.90;;;20.00;58.37;165813.91;4959898;28;20094;-83
2022/05/22 18:53:44;;;;;;;7.90;3.33;;;18.90;99.90;;;19.95;58.50;165801.78;4961385;28;20035;-86
2022/05/22 18:56:26;;;;;;;7.65;3.58;;;18.80;99.90;;;19.92;58.45;165792.38;4961790;29;20126;-84
2022/05/22 18:58:52;;;;;;;9.30;4.13;;;18.80;99.90;;;19.88;58.62;165781.63;4959877;28;20059;-83
2022/05/22 19:01:23;;;;;;;9.70;4.25;;;18.70;99.90;;;19.81;58.79;165764.16;4960680;28;20031;-83
2022/05/22 19:03:49;;;;;;;7.90;3.42;;;18.70;99.90;;;19.74;59.53;165745.38;4958642;28;20035;-84
2022/05/22 19:06:16;;;;;;;13.25;4.55;;;18.60;99.90;;;19.67;59.44;165725.22;4959812;28;20503;-86
2022/05/22 19:08:42;;;;;;;7.38;3.60;;;18.60;99.90;;;19.62;59.91;165713.09;4959024;28;20518;-85